sensor_id;sensor_type;location;lat;lon;timestamp;pressure;altitude;pressure_sealevel;temperature;humidity
9853;BME280;4965;43.238;27.864;2022-10-20T00:00:54;100458.88;;;12.65;100.00
9853;BME280;4965;43.238;27.864;2022-10-20T00:03:21;100475.75;;;12.64;100.00
9853;BME280;4965;43.238;27.864;2022-10-20T00:05:48;100429.78;;;12.44;100.00
9853;BME280;4965;43.238;27.864;2022-10-20T00:08:15;100468.69;;;12.74;100.00
9853;BME280;4965;43.238;27.864;2022-10-20T00:10:42;100467.97;;;12.72;100.00
9853;BME280;4965;43.238;27.864;2022-10-20T00:13:10;100470.63;;;12.62;100.00
9853;BME280;4965;43.238;27.864;2022-10-20T00:15:37;100465.88;;;12.75;100.00
9853;BME280;4965;43.238;27.864;2022-10-20T00:18:04;100464.22;;;12.84;100.00
9853;BME280;4965;43.238;27.864;2022-10-20T00:20:30;100465.22;;;12.93;100.00
9853;BME280;4965;43.238;27.864;2022-10-20T00:22:57;100463.69;;;13.00;100.00
9853;BME280;4965;43.238;27.864;2022-10-20T00:25:24;100463.44;;;13.12;100.00
9853;BME280;4965;43.238;27.864;2022-10-20T00:27:51;100463.84;;;13.17;100.00
9853;BME280;4965;43.238;27.864;2022-10-20T00:30:19;100460.50;;;13.15;100.00
9853;BME280;4965;43.238;27.864;2022-10-20T00:32:46;100471.00;;;13.26;100.00
9853;BME280;4965;43.238;27.864;2022-10-20T00:35:13;100469.16;;;13.36;100.00
9853;BME280;4965;43.238;27.864;2022-10-20T00:37:40;100439.13;;;13.26;100.00
9853;BME280;4965;43.238;27.864;2022-10-20T00:40:08;100473.50;;;13.38;100.00
9853;BME280;4965;43.238;27.864;2022-10-20T00:42:35;100470.97;;;13.46;100.00
9853;BME280;4965;43.238;27.864;2022-10-20T00:45:06;100464.41;;;13.50;100.00
9853;BME280;4965;43.238;27.864;2022-10-20T00:47:43;100467.19;;;13.48;100.00
9853;BME280;4965;43.238;27.864;2022-10-20T00:50:15;100451.72;;;13.44;100.00
9853;BME280;4965;43.238;27.864;2022-10-20T00:52:42;100471.81;;;13.46;100.00
9853;BME280;4965;43.238;27.864;2022-10-20T00:55:12;100456.72;;;13.37;100.00
9853;BME280;4965;43.238;27.864;2022-10-20T00:57:41;100484.69;;;13.51;100.00
9853;BME280;4965;43.238;27.864;2022-10-20T01:00:11;100479.91;;;13.45;100.00
9853;BME280;4965;43.238;27.864;2022-10-20T01:02:39;100482.72;;;13.43;100.00
9853;BME280;4965;43.238;27.864;2022-10-20T01:05:07;100476.84;;;13.30;100.00
9853;BME280;4965;43.238;27.864;2022-10-20T01:07:35;100492.78;;;13.20;100.00
9853;BME280;4965;43.238;27.864;2022-10-20T01:10:03;100470.56;;;13.12;100.00
9853;BME280;4965;43.238;27.864;2022-10-20T01:12:37;100498.66;;;13.24;100.00
9853;BME280;4965;43.238;27.864;2022-10-20T01:15:14;100491.66;;;13.13;100.00
9853;BME280;4965;43.238;27.864;2022-10-20T01:17:51;100496.41;;;13.10;100.00
9853;BME280;4965;43.238;27.864;2022-10-20T01:20:52;100505.69;;;12.95;100.00
9853;BME280;4965;43.238;27.864;2022-10-20T01:23:47;100507.22;;;12.78;100.00
9853;BME280;4965;43.238;27.864;2022-10-20T01:26:45;100513.72;;;12.64;100.00
9853;BME280;4965;43.238;27.864;2022-10-20T01:29:25;100512.59;;;12.57;100.00
9853;BME280;4965;43.238;27.864;2022-10-20T01:31:59;100476.59;;;12.55;100.00
9853;BME280;4965;43.238;27.864;2022-10-20T01:34:31;100504.84;;;12.84;100.00
9853;BME280;4965;43.238;27.864;2022-10-20T01:37:07;100511.84;;;12.85;100.00
9853;BME280;4965;43.238;27.864;2022-10-20T01:39:41;100514.28;;;12.68;100.00
9853;BME280;4965;43.238;27.864;2022-10-20T01:42:13;100470.50;;;12.33;100.00
9853;BME280;4965;43.238;27.864;2022-10-20T01:44:46;100511.56;;;12.39;100.00
9853;BME280;4965;43.238;27.864;2022-10-20T01:47:15;100493.69;;;12.11;100.00
9853;BME280;4965;43.238;27.864;2022-10-20T01:49:43;100491.53;;;11.95;100.00
9853;BME280;4965;43.238;27.864;2022-10-20T01:52:11;100515.44;;;12.05;100.00
9853;BME280;4965;43.238;27.864;2022-10-20T01:54:39;100511.63;;;11.77;100.00
9853;BME280;4965;43.238;27.864;2022-10-20T01:57:19;100515.13;;;11.66;100.00
9853;BME280;4965;43.238;27.864;2022-10-20T02:00:00;100496.88;;;11.42;100.00
9853;BME280;4965;43.238;27.864;2022-10-20T02:02:38;100525.34;;;11.50;100.00
9853;BME280;4965;43.238;27.864;2022-10-20T02:05:22;100516.16;;;11.33;100.00
9853;BME280;4965;43.238;27.864;2022-10-20T02:07:59;100525.97;;;11.42;100.00
9853;BME280;4965;43.238;27.864;2022-10-20T02:10:33;100509.78;;;11.25;100.00
9853;BME280;4965;43.238;27.864;2022-10-20T02:13:06;100526.03;;;11.31;100.00
9853;BME280;4965;43.238;27.864;2022-10-20T02:15:38;100534.63;;;11.44;100.00
9853;BME280;4965;43.238;27.864;2022-10-20T02:18:07;100532.66;;;11.58;100.00
9853;BME280;4965;43.238;27.864;2022-10-20T02:20:35;100537.13;;;11.78;100.00
9853;BME280;4965;43.238;27.864;2022-10-20T02:23:03;100508.03;;;11.67;100.00
9853;BME280;4965;43.238;27.864;2022-10-20T02:25:32;100478.03;;;11.57;100.00
9853;BME280;4965;43.238;27.864;2022-10-20T02:28:01;100534.09;;;12.03;100.00
9853;BME280;4965;43.238;27.864;2022-10-20T02:30:30;100502.91;;;11.86;100.00
9853;BME280;4965;43.238;27.864;2022-10-20T02:32:59;100539.50;;;12.22;100.00
9853;BME280;4965;43.238;27.864;2022-10-20T02:35:29;100523.31;;;12.16;100.00
9853;BME280;4965;43.238;27.864;2022-10-20T02:37:57;100550.66;;;12.47;100.00
9853;BME280;4965;43.238;27.864;2022-10-20T02:40:24;100539.22;;;12.56;100.00
9853;BME280;4965;43.238;27.864;2022-10-20T02:42:51;100485.63;;;12.12;100.00
9853;BME280;4965;43.238;27.864;2022-10-20T02:45:18;100555.88;;;12.67;100.00
9853;BME280;4965;43.238;27.864;2022-10-20T02:47:45;100545.81;;;12.61;100.00
9853;BME280;4965;43.238;27.864;2022-10-20T02:50:14;100508.72;;;12.31;100.00
9853;BME280;4965;43.238;27.864;2022-10-20T02:52:41;100544.06;;;12.41;100.00
9853;BME280;4965;43.238;27.864;2022-10-20T02:55:08;100545.47;;;12.45;100.00
9853;BME280;4965;43.238;27.864;2022-10-20T02:57:35;100560.09;;;12.70;100.00
9853;BME280;4965;43.238;27.864;2022-10-20T03:00:03;100554.28;;;12.85;100.00
9853;BME280;4965;43.238;27.864;2022-10-20T03:02:30;100579.59;;;12.99;100.00
9853;BME280;4965;43.238;27.864;2022-10-20T03:04:57;100566.88;;;13.03;100.00
9853;BME280;4965;43.238;27.864;2022-10-20T03:07:25;100570.94;;;13.07;100.00
9853;BME280;4965;43.238;27.864;2022-10-20T03:09:52;100569.13;;;13.07;100.00
9853;BME280;4965;43.238;27.864;2022-10-20T03:12:19;100553.84;;;12.80;100.00
9853;BME280;4965;43.238;27.864;2022-10-20T03:14:46;100547.91;;;12.58;100.00
9853;BME280;4965;43.238;27.864;2022-10-20T03:17:13;100568.47;;;12.75;100.00
9853;BME280;4965;43.238;27.864;2022-10-20T03:19:40;100569.16;;;12.67;100.00
9853;BME280;4965;43.238;27.864;2022-10-20T03:22:06;100567.22;;;12.79;100.00
9853;BME280;4965;43.238;27.864;2022-10-20T03:24:35;100566.53;;;12.77;100.00
9853;BME280;4965;43.238;27.864;2022-10-20T03:27:02;100573.09;;;12.43;100.00
9853;BME280;4965;43.238;27.864;2022-10-20T03:29:29;100578.34;;;12.63;100.00
9853;BME280;4965;43.238;27.864;2022-10-20T03:31:55;100580.31;;;12.71;100.00
9853;BME280;4965;43.238;27.864;2022-10-20T03:34:23;100582.31;;;12.78;100.00
9853;BME280;4965;43.238;27.864;2022-10-20T03:36:49;100588.81;;;12.65;100.00
9853;BME280;4965;43.238;27.864;2022-10-20T03:39:16;100591.81;;;12.81;100.00
9853;BME280;4965;43.238;27.864;2022-10-20T03:41:45;100548.19;;;12.55;100.00
9853;BME280;4965;43.238;27.864;2022-10-20T03:44:11;100561.84;;;12.60;100.00
9853;BME280;4965;43.238;27.864;2022-10-20T03:46:38;100548.75;;;12.58;100.00
9853;BME280;4965;43.238;27.864;2022-10-20T03:49:05;100597.03;;;13.02;100.00
9853;BME280;4965;43.238;27.864;2022-10-20T03:51:32;100557.38;;;12.51;100.00
9853;BME280;4965;43.238;27.864;2022-10-20T03:53:59;100610.19;;;13.03;100.00
9853;BME280;4965;43.238;27.864;2022-10-20T03:56:26;100612.94;;;12.92;100.00
9853;BME280;4965;43.238;27.864;2022-10-20T03:58:54;100585.69;;;12.80;100.00
9853;BME280;4965;43.238;27.864;2022-10-20T04:01:25;100564.00;;;12.75;100.00
9853;BME280;4965;43.238;27.864;2022-10-20T04:03:53;100601.53;;;13.01;100.00
9853;BME280;4965;43.238;27.864;2022-10-20T04:06:20;100614.28;;;13.17;100.00
9853;BME280;4965;43.238;27.864;2022-10-20T04:08:47;100558.94;;;13.03;100.00
9853;BME280;4965;43.238;27.864;2022-10-20T04:11:13;100628.63;;;13.45;100.00
9853;BME280;4965;43.238;27.864;2022-10-20T04:13:40;100625.00;;;13.46;100.00
9853;BME280;4965;43.238;27.864;2022-10-20T04:16:08;100631.69;;;13.40;100.00
9853;BME280;4965;43.238;27.864;2022-10-20T04:18:36;100619.53;;;13.38;100.00
9853;BME280;4965;43.238;27.864;2022-10-20T04:21:03;100623.72;;;13.30;100.00
9853;BME280;4965;43.238;27.864;2022-10-20T04:23:31;100630.03;;;13.49;100.00
9853;BME280;4965;43.238;27.864;2022-10-20T04:25:57;100611.41;;;13.29;100.00
9853;BME280;4965;43.238;27.864;2022-10-20T04:28:24;100616.25;;;13.15;100.00
9853;BME280;4965;43.238;27.864;2022-10-20T04:30:51;100640.06;;;13.35;100.00
9853;BME280;4965;43.238;27.864;2022-10-20T04:33:20;100657.94;;;13.33;100.00
9853;BME280;4965;43.238;27.864;2022-10-20T04:35:47;100656.00;;;13.45;100.00
9853;BME280;4965;43.238;27.864;2022-10-20T04:38:14;100657.09;;;13.33;100.00
9853;BME280;4965;43.238;27.864;2022-10-20T04:40:44;100656.13;;;13.34;100.00
9853;BME280;4965;43.238;27.864;2022-10-20T04:43:19;100610.75;;;13.07;100.00
9853;BME280;4965;43.238;27.864;2022-10-20T04:45:45;100654.59;;;13.41;100.00
9853;BME280;4965;43.238;27.864;2022-10-20T04:48:12;100657.97;;;13.43;100.00
9853;BME280;4965;43.238;27.864;2022-10-20T04:50:40;100629.13;;;13.19;100.00
9853;BME280;4965;43.238;27.864;2022-10-20T04:53:08;100658.22;;;13.40;100.00
9853;BME280;4965;43.238;27.864;2022-10-20T04:55:35;100661.03;;;13.39;100.00
9853;BME280;4965;43.238;27.864;2022-10-20T04:58:02;100670.66;;;13.30;100.00
9853;BME280;4965;43.238;27.864;2022-10-20T05:00:29;100666.19;;;13.30;100.00
9853;BME280;4965;43.238;27.864;2022-10-20T05:02:56;100678.03;;;13.26;100.00
9853;BME280;4965;43.238;27.864;2022-10-20T05:05:23;100650.19;;;13.11;100.00
9853;BME280;4965;43.238;27.864;2022-10-20T05:07:51;100651.28;;;13.09;100.00
9853;BME280;4965;43.238;27.864;2022-10-20T05:10:18;100669.81;;;13.29;100.00
9853;BME280;4965;43.238;27.864;2022-10-20T05:12:46;100673.13;;;13.22;100.00
9853;BME280;4965;43.238;27.864;2022-10-20T05:15:12;100693.31;;;13.34;100.00
9853;BME280;4965;43.238;27.864;2022-10-20T05:17:39;100700.59;;;13.42;100.00
9853;BME280;4965;43.238;27.864;2022-10-20T05:20:07;100705.16;;;13.20;100.00
9853;BME280;4965;43.238;27.864;2022-10-20T05:22:34;100718.88;;;13.35;100.00
9853;BME280;4965;43.238;27.864;2022-10-20T05:25:03;100719.06;;;13.43;100.00
9853;BME280;4965;43.238;27.864;2022-10-20T05:27:30;100725.22;;;13.53;100.00
9853;BME280;4965;43.238;27.864;2022-10-20T05:29:57;100722.72;;;13.61;100.00
9853;BME280;4965;43.238;27.864;2022-10-20T05:32:27;100733.31;;;13.52;100.00
9853;BME280;4965;43.238;27.864;2022-10-20T05:34:54;100727.53;;;13.27;100.00
9853;BME280;4965;43.238;27.864;2022-10-20T05:37:21;100712.94;;;13.12;100.00
9853;BME280;4965;43.238;27.864;2022-10-20T05:39:47;100754.59;;;13.21;100.00
9853;BME280;4965;43.238;27.864;2022-10-20T05:42:16;100773.69;;;13.15;100.00
9853;BME280;4965;43.238;27.864;2022-10-20T05:44:43;100756.72;;;13.27;100.00
9853;BME280;4965;43.238;27.864;2022-10-20T05:47:29;100758.53;;;13.27;100.00
9853;BME280;4965;43.238;27.864;2022-10-20T05:49:55;100706.78;;;12.91;100.00
9853;BME280;4965;43.238;27.864;2022-10-20T05:52:22;100764.81;;;13.26;100.00
9853;BME280;4965;43.238;27.864;2022-10-20T05:54:49;100769.66;;;13.21;100.00
9853;BME280;4965;43.238;27.864;2022-10-20T05:57:19;100777.88;;;13.39;100.00
9853;BME280;4965;43.238;27.864;2022-10-20T05:59:45;100791.22;;;13.27;100.00
9853;BME280;4965;43.238;27.864;2022-10-20T06:02:12;100747.72;;;13.19;100.00
9853;BME280;4965;43.238;27.864;2022-10-20T06:04:39;100780.53;;;13.39;100.00
9853;BME280;4965;43.238;27.864;2022-10-20T06:07:06;100779.09;;;13.34;100.00
9853;BME280;4965;43.238;27.864;2022-10-20T06:09:34;100797.69;;;13.34;100.00
9853;BME280;4965;43.238;27.864;2022-10-20T06:12:02;100726.47;;;12.88;100.00
9853;BME280;4965;43.238;27.864;2022-10-20T06:14:31;100813.63;;;13.34;100.00
9853;BME280;4965;43.238;27.864;2022-10-20T06:16:59;100783.09;;;13.19;100.00
9853;BME280;4965;43.238;27.864;2022-10-20T06:19:26;100777.38;;;13.03;100.00
9853;BME280;4965;43.238;27.864;2022-10-20T06:21:53;100808.59;;;13.31;100.00
9853;BME280;4965;43.238;27.864;2022-10-20T06:24:20;100818.16;;;13.44;100.00
9853;BME280;4965;43.238;27.864;2022-10-20T06:26:47;100804.94;;;13.32;100.00
9853;BME280;4965;43.238;27.864;2022-10-20T06:29:16;100846.25;;;13.46;100.00
9853;BME280;4965;43.238;27.864;2022-10-20T06:31:46;100816.19;;;13.46;100.00
9853;BME280;4965;43.238;27.864;2022-10-20T06:34:15;100832.44;;;13.52;100.00
9853;BME280;4965;43.238;27.864;2022-10-20T06:36:43;100826.91;;;13.65;100.00
9853;BME280;4965;43.238;27.864;2022-10-20T06:39:13;100837.72;;;13.82;100.00
9853;BME280;4965;43.238;27.864;2022-10-20T06:41:40;100813.16;;;13.60;100.00
9853;BME280;4965;43.238;27.864;2022-10-20T06:44:07;100833.16;;;13.54;100.00
9853;BME280;4965;43.238;27.864;2022-10-20T06:46:35;100847.97;;;13.57;100.00
9853;BME280;4965;43.238;27.864;2022-10-20T06:49:05;100842.53;;;13.58;100.00
9853;BME280;4965;43.238;27.864;2022-10-20T06:51:33;100838.59;;;13.53;100.00
9853;BME280;4965;43.238;27.864;2022-10-20T06:54:00;100859.22;;;13.40;100.00
9853;BME280;4965;43.238;27.864;2022-10-20T06:56:30;100847.56;;;13.61;100.00
9853;BME280;4965;43.238;27.864;2022-10-20T06:58:58;100867.31;;;13.38;100.00
9853;BME280;4965;43.238;27.864;2022-10-20T07:01:26;100874.03;;;13.42;100.00
9853;BME280;4965;43.238;27.864;2022-10-20T07:03:55;100828.50;;;13.47;100.00
9853;BME280;4965;43.238;27.864;2022-10-20T07:06:25;100899.69;;;13.32;100.00
9853;BME280;4965;43.238;27.864;2022-10-20T07:08:53;100880.78;;;13.25;100.00
9853;BME280;4965;43.238;27.864;2022-10-20T07:11:22;100878.88;;;13.37;100.00
9853;BME280;4965;43.238;27.864;2022-10-20T07:13:49;100837.94;;;12.77;100.00
9853;BME280;4965;43.238;27.864;2022-10-20T07:16:18;100851.06;;;12.79;100.00
9853;BME280;4965;43.238;27.864;2022-10-20T07:18:46;100866.16;;;13.10;100.00
9853;BME280;4965;43.238;27.864;2022-10-20T07:21:15;100876.53;;;13.02;100.00
9853;BME280;4965;43.238;27.864;2022-10-20T07:23:44;100869.16;;;13.06;100.00
9853;BME280;4965;43.238;27.864;2022-10-20T07:26:13;100847.25;;;12.72;100.00
9853;BME280;4965;43.238;27.864;2022-10-20T07:28:42;100891.16;;;12.97;100.00
9853;BME280;4965;43.238;27.864;2022-10-20T07:31:11;100872.72;;;12.95;100.00
9853;BME280;4965;43.238;27.864;2022-10-20T07:33:39;100853.13;;;12.55;100.00
9853;BME280;4965;43.238;27.864;2022-10-20T07:36:11;100860.03;;;12.67;100.00
9853;BME280;4965;43.238;27.864;2022-10-20T07:38:38;100910.38;;;12.89;100.00
9853;BME280;4965;43.238;27.864;2022-10-20T07:41:07;100912.88;;;12.90;100.00
9853;BME280;4965;43.238;27.864;2022-10-20T07:43:35;100865.75;;;12.62;100.00
9853;BME280;4965;43.238;27.864;2022-10-20T07:46:02;100903.53;;;13.07;100.00
9853;BME280;4965;43.238;27.864;2022-10-20T07:48:29;100852.00;;;12.89;100.00
9853;BME280;4965;43.238;27.864;2022-10-20T07:51:12;100900.38;;;13.13;100.00
9853;BME280;4965;43.238;27.864;2022-10-20T07:53:40;100898.06;;;13.20;100.00
9853;BME280;4965;43.238;27.864;2022-10-20T07:56:09;100902.47;;;13.30;100.00
9853;BME280;4965;43.238;27.864;2022-10-20T07:58:36;100889.69;;;13.04;100.00
9853;BME280;4965;43.238;27.864;2022-10-20T08:01:03;100895.09;;;13.34;100.00
9853;BME280;4965;43.238;27.864;2022-10-20T08:03:30;100937.16;;;13.18;100.00
9853;BME280;4965;43.238;27.864;2022-10-20T08:05:57;100888.53;;;13.17;100.00
9853;BME280;4965;43.238;27.864;2022-10-20T08:08:24;100941.88;;;13.14;100.00
9853;BME280;4965;43.238;27.864;2022-10-20T08:10:52;100900.38;;;13.13;100.00
9853;BME280;4965;43.238;27.864;2022-10-20T08:13:20;100894.31;;;13.22;100.00
9853;BME280;4965;43.238;27.864;2022-10-20T08:15:47;100926.50;;;12.97;100.00
9853;BME280;4965;43.238;27.864;2022-10-20T08:18:14;100901.84;;;13.06;100.00
9853;BME280;4965;43.238;27.864;2022-10-20T08:20:43;100907.16;;;13.06;100.00
9853;BME280;4965;43.238;27.864;2022-10-20T08:23:10;100935.16;;;13.10;100.00
9853;BME280;4965;43.238;27.864;2022-10-20T08:25:37;100929.72;;;13.32;100.00
9853;BME280;4965;43.238;27.864;2022-10-20T08:28:04;100904.03;;;13.12;100.00
9853;BME280;4965;43.238;27.864;2022-10-20T08:30:33;100936.09;;;13.62;100.00
9853;BME280;4965;43.238;27.864;2022-10-20T08:33:00;100931.47;;;13.64;100.00
9853;BME280;4965;43.238;27.864;2022-10-20T08:35:27;100919.69;;;13.57;100.00
9853;BME280;4965;43.238;27.864;2022-10-20T08:37:54;100893.78;;;13.49;100.00
9853;BME280;4965;43.238;27.864;2022-10-20T08:40:25;100946.44;;;13.95;100.00
9853;BME280;4965;43.238;27.864;2022-10-20T08:42:52;100921.56;;;13.66;99.95
9853;BME280;4965;43.238;27.864;2022-10-20T08:45:22;100919.78;;;13.76;100.00
9853;BME280;4965;43.238;27.864;2022-10-20T08:47:52;100928.56;;;13.97;99.26
9853;BME280;4965;43.238;27.864;2022-10-20T08:50:20;100946.25;;;13.77;97.43
9853;BME280;4965;43.238;27.864;2022-10-20T08:52:51;100936.13;;;14.02;97.89
9853;BME280;4965;43.238;27.864;2022-10-20T08:55:24;100921.56;;;13.96;96.77
9853;BME280;4965;43.238;27.864;2022-10-20T08:57:55;100963.03;;;14.08;96.44
9853;BME280;4965;43.238;27.864;2022-10-20T09:00:24;100938.97;;;14.10;96.80
9853;BME280;4965;43.238;27.864;2022-10-20T09:02:53;100953.41;;;14.57;93.50
9853;BME280;4965;43.238;27.864;2022-10-20T09:05:22;100953.31;;;14.58;93.60
9853;BME280;4965;43.238;27.864;2022-10-20T09:07:51;100961.56;;;14.65;92.79
9853;BME280;4965;43.238;27.864;2022-10-20T09:10:25;100950.66;;;14.77;92.55
9853;BME280;4965;43.238;27.864;2022-10-20T09:12:55;100908.66;;;14.81;91.44
9853;BME280;4965;43.238;27.864;2022-10-20T09:15:22;100969.75;;;15.11;90.14
9853;BME280;4965;43.238;27.864;2022-10-20T09:17:57;100973.81;;;15.06;88.73
9853;BME280;4965;43.238;27.864;2022-10-20T09:20:28;100964.00;;;15.06;87.41
9853;BME280;4965;43.238;27.864;2022-10-20T09:22:57;100961.91;;;15.29;86.80
9853;BME280;4965;43.238;27.864;2022-10-20T09:25:25;100983.63;;;15.34;84.76
9853;BME280;4965;43.238;27.864;2022-10-20T09:27:53;100927.97;;;15.41;83.94
9853;BME280;4965;43.238;27.864;2022-10-20T09:30:23;100973.94;;;15.71;81.46
9853;BME280;4965;43.238;27.864;2022-10-20T09:32:51;100915.34;;;14.75;81.68
9853;BME280;4965;43.238;27.864;2022-10-20T09:35:25;100971.41;;;15.03;83.53
9853;BME280;4965;43.238;27.864;2022-10-20T09:37:59;100969.75;;;15.31;83.82
9853;BME280;4965;43.238;27.864;2022-10-20T09:40:27;100964.13;;;15.53;82.31
9853;BME280;4965;43.238;27.864;2022-10-20T09:42:56;100952.63;;;15.71;78.66
9853;BME280;4965;43.238;27.864;2022-10-20T09:45:25;100990.78;;;15.53;78.19
9853;BME280;4965;43.238;27.864;2022-10-20T09:47:58;100985.31;;;15.54;78.73
9853;BME280;4965;43.238;27.864;2022-10-20T09:50:31;100984.44;;;15.73;77.82
9853;BME280;4965;43.238;27.864;2022-10-20T09:53:01;100975.50;;;15.55;79.25
9853;BME280;4965;43.238;27.864;2022-10-20T09:55:32;100979.84;;;15.75;78.33
9853;BME280;4965;43.238;27.864;2022-10-20T09:58:01;100987.50;;;15.88;77.08
9853;BME280;4965;43.238;27.864;2022-10-20T10:00:31;100985.97;;;15.95;77.00
9853;BME280;4965;43.238;27.864;2022-10-20T10:03:22;100982.28;;;15.96;76.46
9853;BME280;4965;43.238;27.864;2022-10-20T10:05:52;100946.69;;;16.14;75.98
9853;BME280;4965;43.238;27.864;2022-10-20T10:08:22;100971.81;;;16.58;74.43
9853;BME280;4965;43.238;27.864;2022-10-20T10:11:00;100961.25;;;16.57;74.01
9853;BME280;4965;43.238;27.864;2022-10-20T10:13:30;100976.38;;;16.39;73.99
9853;BME280;4965;43.238;27.864;2022-10-20T10:16:08;100962.44;;;16.45;72.73
9853;BME280;4965;43.238;27.864;2022-10-20T10:18:36;100941.78;;;16.47;71.12
9853;BME280;4965;43.238;27.864;2022-10-20T10:21:07;100960.53;;;16.37;71.88
9853;BME280;4965;43.238;27.864;2022-10-20T10:23:35;100975.41;;;16.67;70.65
9853;BME280;4965;43.238;27.864;2022-10-20T10:26:32;100955.75;;;17.03;70.02
9853;BME280;4965;43.238;27.864;2022-10-20T10:28:59;100961.16;;;17.11;70.45
9853;BME280;4965;43.238;27.864;2022-10-20T10:31:27;100961.66;;;16.62;69.88
9853;BME280;4965;43.238;27.864;2022-10-20T10:34:00;100971.78;;;17.03;68.75
9853;BME280;4965;43.238;27.864;2022-10-20T10:36:35;100975.28;;;16.86;69.05
9853;BME280;4965;43.238;27.864;2022-10-20T10:39:05;100987.06;;;17.29;67.85
9853;BME280;4965;43.238;27.864;2022-10-20T10:41:47;100981.38;;;16.79;67.98
9853;BME280;4965;43.238;27.864;2022-10-20T10:44:26;100957.84;;;17.09;68.28
9853;BME280;4965;43.238;27.864;2022-10-20T10:47:05;100956.16;;;16.91;67.68
9853;BME280;4965;43.238;27.864;2022-10-20T10:49:47;100927.66;;;16.99;68.13
9853;BME280;4965;43.238;27.864;2022-10-20T10:52:28;100958.50;;;17.11;68.90
9853;BME280;4965;43.238;27.864;2022-10-20T10:55:11;100953.22;;;16.84;69.79
9853;BME280;4965;43.238;27.864;2022-10-20T10:57:51;100949.88;;;17.18;68.81
9853;BME280;4965;43.238;27.864;2022-10-20T11:00:40;100947.22;;;17.18;68.67
9853;BME280;4965;43.238;27.864;2022-10-20T11:03:33;100936.34;;;16.84;69.13
9853;BME280;4965;43.238;27.864;2022-10-20T11:06:09;100960.78;;;16.89;69.52
9853;BME280;4965;43.238;27.864;2022-10-20T11:08:51;100952.44;;;16.56;70.46
9853;BME280;4965;43.238;27.864;2022-10-20T11:11:26;100938.44;;;16.45;70.80
9853;BME280;4965;43.238;27.864;2022-10-20T11:14:09;100951.72;;;16.54;71.63
9853;BME280;4965;43.238;27.864;2022-10-20T11:16:46;100954.16;;;16.11;72.61
9853;BME280;4965;43.238;27.864;2022-10-20T11:19:35;100951.28;;;16.59;72.27
9853;BME280;4965;43.238;27.864;2022-10-20T11:22:12;100960.88;;;16.52;72.04
9853;BME280;4965;43.238;27.864;2022-10-20T11:24:47;100883.16;;;16.37;71.97
9853;BME280;4965;43.238;27.864;2022-10-20T11:27:17;100948.00;;;16.65;71.68
9853;BME280;4965;43.238;27.864;2022-10-20T11:29:46;100946.50;;;16.53;71.67
9853;BME280;4965;43.238;27.864;2022-10-20T11:32:22;100936.63;;;16.90;71.57
9853;BME280;4965;43.238;27.864;2022-10-20T11:34:58;100943.34;;;17.38;68.60
9853;BME280;4965;43.238;27.864;2022-10-20T11:37:28;100935.16;;;17.75;67.83
9853;BME280;4965;43.238;27.864;2022-10-20T11:40:04;100933.50;;;17.38;68.96
9853;BME280;4965;43.238;27.864;2022-10-20T11:42:38;100944.69;;;17.34;68.53
9853;BME280;4965;43.238;27.864;2022-10-20T11:45:25;100943.91;;;16.71;70.71
9853;BME280;4965;43.238;27.864;2022-10-20T11:47:56;100942.50;;;16.94;69.12
9853;BME280;4965;43.238;27.864;2022-10-20T11:50:26;100943.03;;;16.97;68.24
9853;BME280;4965;43.238;27.864;2022-10-20T11:56:05;100946.69;;;17.14;67.65
9853;BME280;4965;43.238;27.864;2022-10-20T11:58:58;100942.00;;;16.81;68.20
9853;BME280;4965;43.238;27.864;2022-10-20T12:01:35;100953.34;;;16.65;68.30
9853;BME280;4965;43.238;27.864;2022-10-20T12:04:29;100939.34;;;16.63;69.06
9853;BME280;4965;43.238;27.864;2022-10-20T12:07:29;100934.63;;;16.75;68.34
9853;BME280;4965;43.238;27.864;2022-10-20T12:10:14;100954.44;;;16.45;68.61
9853;BME280;4965;43.238;27.864;2022-10-20T12:12:54;100938.97;;;15.84;70.02
9853;BME280;4965;43.238;27.864;2022-10-20T12:15:25;100950.75;;;16.18;69.40
9853;BME280;4965;43.238;27.864;2022-10-20T12:17:53;100951.47;;;16.20;69.37
9853;BME280;4965;43.238;27.864;2022-10-20T12:23:54;100951.78;;;16.45;68.88
9853;BME280;4965;43.238;27.864;2022-10-20T12:27:03;100957.25;;;16.43;68.20
9853;BME280;4965;43.238;27.864;2022-10-20T12:30:15;100964.81;;;16.11;68.45
9853;BME280;4965;43.238;27.864;2022-10-20T12:32:57;100957.84;;;16.10;68.49
9853;BME280;4965;43.238;27.864;2022-10-20T12:38:28;100957.97;;;16.08;67.96
9853;BME280;4965;43.238;27.864;2022-10-20T12:40:58;100956.34;;;15.98;68.09
9853;BME280;4965;43.238;27.864;2022-10-20T12:43:46;100957.44;;;16.05;68.12
9853;BME280;4965;43.238;27.864;2022-10-20T12:46:19;100968.38;;;16.02;68.41
9853;BME280;4965;43.238;27.864;2022-10-20T12:48:48;100960.59;;;16.18;68.31
9853;BME280;4965;43.238;27.864;2022-10-20T12:51:37;100954.34;;;16.37;67.10
9853;BME280;4965;43.238;27.864;2022-10-20T12:54:16;100959.22;;;16.41;66.51
9853;BME280;4965;43.238;27.864;2022-10-20T12:56:45;100973.53;;;16.13;67.03
9853;BME280;4965;43.238;27.864;2022-10-20T12:59:37;100978.75;;;16.05;67.78
9853;BME280;4965;43.238;27.864;2022-10-20T13:02:34;100982.19;;;16.25;67.05
9853;BME280;4965;43.238;27.864;2022-10-20T13:05:45;100978.19;;;16.38;66.43
9853;BME280;4965;43.238;27.864;2022-10-20T13:08:22;100982.34;;;16.50;65.86
9853;BME280;4965;43.238;27.864;2022-10-20T13:10:50;100987.09;;;16.29;65.13
9853;BME280;4965;43.238;27.864;2022-10-20T13:13:57;100985.63;;;16.07;64.91
9853;BME280;4965;43.238;27.864;2022-10-20T13:16:27;100985.25;;;15.93;65.79
9853;BME280;4965;43.238;27.864;2022-10-20T13:18:59;100992.28;;;15.84;65.88
9853;BME280;4965;43.238;27.864;2022-10-20T13:21:30;101000.31;;;15.75;66.22
9853;BME280;4965;43.238;27.864;2022-10-20T13:24:09;100995.81;;;15.65;66.03